createdAt,value
2023-04-18T00:02:53.917Z,27.13
2023-04-18T00:06:36.029Z,23.58
2023-04-18T00:10:17.803Z,23.08
2023-04-18T00:13:59.597Z,25.52
2023-04-18T00:17:41.482Z,25.52
2023-04-18T00:21:25.515Z,25.85
2023-04-18T00:25:07.799Z,23.65
2023-04-18T00:28:51.588Z,24.33
2023-04-18T00:32:33.430Z,24.02
2023-04-18T00:36:15.222Z,25.40
2023-04-18T00:39:57.021Z,24.58
2023-04-18T00:43:38.760Z,21.75
2023-04-18T00:47:20.601Z,26.42
2023-04-18T00:51:02.415Z,28.88
2023-04-18T00:54:45.168Z,23.67
2023-04-18T00:58:27.364Z,23.30
2023-04-18T01:02:09.290Z,24.48
2023-04-18T01:05:51.261Z,22.35
2023-04-18T01:09:33.093Z,26.92
2023-04-18T01:13:17.077Z,23.48
2023-04-18T01:16:58.910Z,21.45
2023-04-18T01:20:45.789Z,24.15
2023-04-18T01:24:29.805Z,22.27
2023-04-18T01:28:14.066Z,19.58
2023-04-18T01:31:55.923Z,24.73
2023-04-18T01:35:37.781Z,20.17
2023-04-18T01:39:19.566Z,27.75
2023-04-18T01:43:01.443Z,20.27
2023-04-18T01:46:43.287Z,19.70
2023-04-18T01:50:25.176Z,19.50
2023-04-18T01:54:07.020Z,21.08
2023-04-18T01:57:50.762Z,14.40
2023-04-18T02:01:32.536Z,15.23
2023-04-18T02:05:14.351Z,15.98
2023-04-18T02:08:56.168Z,11.52
2023-04-18T02:12:37.884Z,11.75
2023-04-18T02:16:19.693Z,13.57
2023-04-18T02:20:01.490Z,15.68
2023-04-18T02:23:43.270Z,18.58
2023-04-18T02:27:24.984Z,15.93
2023-04-18T02:31:07.438Z,18.83
2023-04-18T02:34:49.193Z,14.82
2023-04-18T02:38:31.817Z,18.25
2023-04-18T02:42:13.565Z,16.52
2023-04-18T02:45:55.933Z,17.67
2023-04-18T02:49:37.719Z,17.00
2023-04-18T02:53:19.639Z,22.20
2023-04-18T02:57:01.545Z,26.55
2023-04-18T03:00:43.299Z,31.52
2023-04-18T03:04:25.471Z,25.65
2023-04-18T03:08:07.225Z,28.98
2023-04-18T03:11:48.945Z,29.08
2023-04-18T03:15:33.729Z,28.95
2023-04-18T03:19:15.711Z,30.88
2023-04-18T03:22:57.505Z,31.00
2023-04-18T03:26:39.450Z,31.55
2023-04-18T03:30:21.381Z,31.25
2023-04-18T03:34:03.100Z,33.15
2023-04-18T03:37:45.013Z,30.85
2023-04-18T03:41:26.731Z,29.05
2023-04-18T03:45:09.089Z,31.15
2023-04-18T03:48:51.092Z,34.78
2023-04-18T03:52:32.859Z,32.08
2023-04-18T03:56:14.760Z,33.40
2023-04-18T03:59:56.637Z,32.08
2023-04-18T04:03:38.502Z,34.67
2023-04-18T04:07:20.419Z,34.92
2023-04-18T04:11:02.147Z,36.80
2023-04-18T04:14:43.970Z,36.95
2023-04-18T04:18:30.952Z,32.63
2023-04-18T04:22:12.798Z,28.90
2023-04-18T04:25:55.778Z,28.60
2023-04-18T04:29:39.156Z,31.35
2023-04-18T04:33:28.425Z,32.58
2023-04-18T04:37:10.286Z,32.22
2023-04-18T04:40:52.915Z,31.00
2023-04-18T04:44:35.607Z,30.60
2023-04-18T04:48:18.833Z,30.42
2023-04-18T04:52:02.703Z,28.27
2023-04-18T04:55:44.719Z,30.38
2023-04-18T04:59:26.522Z,29.92
2023-04-18T05:03:08.491Z,34.40
2023-04-18T05:06:50.777Z,32.85
2023-04-18T05:10:33.101Z,29.58
2023-04-18T05:14:15.219Z,29.25
2023-04-18T05:17:58.042Z,28.25
2023-04-18T05:21:39.904Z,31.05
2023-04-18T05:25:21.705Z,32.90
2023-04-18T05:29:03.489Z,34.75
2023-04-18T05:32:45.267Z,31.80
2023-04-18T05:36:27.142Z,31.05
2023-04-18T05:40:09.392Z,35.75
2023-04-18T05:44:04.374Z,34.85
2023-04-18T05:47:47.343Z,34.47
2023-04-18T05:51:29.275Z,36.33
2023-04-18T05:55:11.260Z,35.13
2023-04-18T05:58:53.025Z,37.90
2023-04-18T06:02:34.958Z,36.55
2023-04-18T06:06:16.965Z,34.33
2023-04-18T06:09:58.697Z,33.88
2023-04-18T06:13:40.951Z,34.22
2023-04-18T06:17:22.732Z,31.70
2023-04-18T06:21:04.782Z,32.17
2023-04-18T06:24:46.529Z,31.25
2023-04-18T06:28:28.291Z,39.55
2023-04-18T06:32:10.386Z,36.15
2023-04-18T06:35:52.758Z,33.90
2023-04-18T06:39:34.478Z,31.63
2023-04-18T06:43:16.284Z,38.00
2023-04-18T06:46:58.302Z,36.00
2023-04-18T06:50:40.269Z,31.80
2023-04-18T06:54:22.139Z,35.50
2023-04-18T06:58:05.492Z,33.13
2023-04-18T07:01:47.659Z,31.10
2023-04-18T07:05:29.757Z,26.67
2023-04-18T07:09:11.523Z,30.90
2023-04-18T07:12:54.434Z,29.42
2023-04-18T07:16:36.260Z,28.15
2023-04-18T07:22:03.862Z,26.92
2023-04-18T07:25:45.840Z,25.58
2023-04-18T07:29:27.711Z,30.60
2023-04-18T07:33:09.599Z,24.60
2023-04-18T07:36:54.038Z,31.65
2023-04-18T07:40:35.897Z,26.40
2023-04-18T07:44:18.300Z,29.98
2023-04-18T07:48:01.816Z,27.20
2023-04-18T07:51:43.637Z,28.45
2023-04-18T07:55:25.451Z,23.23
2023-04-18T07:59:07.248Z,23.83
2023-04-18T08:02:49.139Z,28.20
2023-04-18T08:06:31.167Z,22.45
2023-04-18T08:10:12.948Z,24.67
2023-04-18T08:13:54.742Z,25.98
2023-04-18T08:17:37.599Z,22.50
2023-04-18T08:21:20.007Z,24.98
2023-04-18T08:25:05.525Z,24.02
2023-04-18T08:28:47.760Z,23.60
2023-04-18T08:32:31.277Z,23.92
2023-04-18T08:36:13.125Z,27.95
2023-04-18T08:39:54.912Z,23.33
2023-04-18T08:43:38.104Z,23.40
2023-04-18T08:47:20.769Z,23.83
2023-04-18T08:51:03.110Z,26.77
2023-04-18T08:54:46.986Z,22.88
2023-04-18T08:58:33.767Z,26.92
2023-04-18T09:02:15.971Z,24.15
2023-04-18T09:06:13.652Z,26.17
2023-04-18T09:09:59.737Z,22.17
2023-04-18T09:13:46.292Z,25.83
2023-04-18T09:17:35.684Z,27.27
2023-04-18T09:21:19.468Z,30.45
2023-04-18T09:25:01.248Z,25.50
2023-04-18T09:28:43.226Z,24.05
2023-04-18T09:32:30.604Z,26.88
2023-04-18T09:36:23.532Z,22.95
2023-04-18T09:40:20.606Z,24.98
2023-04-18T09:44:15.649Z,24.75
2023-04-18T09:47:57.710Z,23.35
2023-04-18T09:51:42.120Z,22.42
2023-04-18T09:55:24.069Z,19.95
2023-04-18T09:59:09.941Z,21.20
2023-04-18T10:02:58.266Z,21.55
2023-04-18T10:06:42.124Z,19.58
2023-04-18T10:10:24.856Z,20.20
2023-04-18T10:14:13.140Z,19.77
2023-04-18T10:18:06.237Z,18.55
2023-04-18T10:21:56.373Z,22.08
2023-04-18T10:25:38.126Z,17.17
2023-04-18T10:29:44.334Z,15.07
2023-04-18T10:33:35.224Z,16.40
2023-04-18T10:37:26.584Z,16.20
2023-04-18T10:41:27.605Z,17.33
2023-04-18T10:45:23.576Z,15.05
2023-04-18T10:52:59.185Z,16.38
2023-04-18T10:56:51.113Z,17.63
2023-04-18T11:00:33.057Z,15.63
2023-04-18T11:04:15.395Z,14.68
2023-04-18T11:07:57.574Z,13.98
2023-04-18T11:11:39.855Z,13.38
2023-04-18T11:15:25.771Z,15.25
2023-04-18T11:19:21.743Z,14.55
2023-04-18T11:23:03.487Z,13.95
2023-04-18T11:26:45.293Z,15.27
2023-04-18T11:30:27.662Z,14.68
2023-04-18T11:34:09.396Z,14.68
2023-04-18T11:37:51.323Z,12.93
2023-04-18T11:41:33.125Z,15.68
2023-04-18T11:45:16.206Z,14.73
2023-04-18T11:48:57.992Z,17.02
2023-04-18T11:52:41.509Z,12.07
2023-04-18T11:56:23.257Z,11.98
2023-04-18T12:00:07.523Z,13.15
2023-04-18T12:04:08.020Z,13.70
2023-04-18T12:07:50.023Z,14.45
2023-04-18T12:11:31.757Z,12.18
2023-04-18T12:15:16.569Z,13.05
2023-04-18T12:19:01.374Z,12.93
2023-04-18T12:22:51.619Z,14.00
2023-04-18T12:26:33.433Z,12.98
2023-04-18T12:30:15.887Z,11.38
2023-04-18T12:33:59.987Z,15.93
2023-04-18T12:37:41.900Z,10.98
2023-04-18T12:41:23.638Z,12.65
2023-04-18T12:45:07.747Z,13.60
2023-04-18T12:48:49.495Z,12.50
2023-04-18T12:52:31.680Z,13.35
2023-04-18T12:56:13.456Z,12.45
2023-04-18T12:59:55.344Z,10.48
2023-04-18T13:03:39.699Z,10.55
2023-04-18T13:07:21.663Z,10.95
2023-04-18T13:11:03.394Z,8.25
2023-04-18T13:14:45.288Z,9.55
2023-04-18T13:18:27.016Z,11.38
2023-04-18T13:22:08.837Z,11.55
2023-04-18T13:25:50.815Z,13.88
2023-04-18T13:29:32.700Z,13.63
2023-04-18T13:33:15.452Z,10.13
2023-04-18T13:36:58.967Z,8.38
2023-04-18T13:40:40.855Z,8.40
2023-04-18T13:44:24.821Z,10.80
2023-04-18T13:48:06.988Z,11.57
2023-04-18T13:51:50.551Z,8.00
2023-04-18T13:55:32.278Z,9.43
2023-04-18T13:59:15.049Z,8.50
2023-04-18T14:02:57.601Z,11.05
2023-04-18T14:06:39.530Z,8.02
2023-04-18T14:10:21.697Z,10.43
2023-04-18T14:14:03.589Z,8.48
2023-04-18T14:17:46.028Z,12.05
2023-04-18T14:21:29.047Z,11.52
2023-04-18T14:25:10.995Z,14.75
2023-04-18T14:28:52.793Z,7.60
2023-04-18T14:32:35.488Z,9.40
2023-04-18T14:36:17.438Z,15.18
2023-04-18T14:39:59.419Z,9.30
2023-04-18T14:43:41.190Z,5.85
2023-04-18T14:47:24.327Z,10.10
2023-04-18T14:51:06.913Z,7.10
2023-04-18T14:54:48.958Z,6.70
2023-04-18T14:58:30.747Z,6.65
2023-04-18T15:02:12.582Z,7.28
2023-04-18T15:05:55.016Z,7.20
2023-04-18T15:09:39.807Z,6.43
2023-04-18T15:13:21.579Z,6.45
2023-04-18T15:17:04.767Z,12.40
2023-04-18T15:20:47.374Z,9.07
2023-04-18T15:24:29.203Z,5.82
2023-04-18T15:28:11.896Z,7.22
2023-04-18T15:31:53.721Z,8.75
2023-04-18T15:35:36.011Z,10.05
2023-04-18T15:39:21.588Z,12.48
2023-04-18T15:43:04.128Z,8.23
2023-04-18T15:46:45.952Z,7.13
2023-04-18T15:50:27.889Z,9.10
2023-04-18T15:54:09.673Z,9.25
2023-04-18T15:57:51.407Z,8.48
2023-04-18T16:01:33.541Z,9.38
2023-04-18T16:05:16.073Z,12.40
2023-04-18T16:08:58.257Z,12.27
2023-04-18T16:12:40.645Z,11.77
2023-04-18T16:16:22.470Z,9.10
2023-04-18T16:20:06.172Z,11.23
2023-04-18T16:23:48.835Z,7.85
2023-04-18T16:27:30.914Z,11.57
2023-04-18T16:31:14.528Z,9.18
2023-04-18T16:34:56.279Z,11.23
2023-04-18T16:38:38.084Z,10.65
2023-04-18T16:42:19.805Z,9.02
2023-04-18T16:46:01.780Z,10.32
2023-04-18T16:49:44.799Z,10.75
2023-04-18T16:53:26.607Z,8.93
2023-04-18T16:57:08.371Z,11.57
2023-04-18T17:00:50.310Z,9.15
2023-04-18T17:04:32.180Z,10.50
2023-04-18T17:08:13.985Z,9.60
2023-04-18T17:11:55.704Z,7.70
2023-04-18T17:15:38.268Z,11.00
2023-04-18T17:19:20.008Z,11.13
2023-04-18T17:23:01.999Z,8.80
2023-04-18T17:26:43.713Z,7.57
2023-04-18T17:30:25.473Z,10.85
2023-04-18T17:34:07.418Z,8.23
2023-04-18T17:37:49.788Z,9.80
2023-04-18T17:41:34.794Z,13.10
2023-04-18T17:45:17.698Z,7.95
2023-04-18T17:48:59.695Z,8.48
2023-04-18T17:52:42.009Z,10.00
2023-04-18T17:56:23.840Z,9.88
2023-04-18T18:00:10.469Z,8.57
2023-04-18T18:03:53.801Z,6.50
2023-04-18T18:07:38.291Z,9.73
2023-04-18T18:11:21.400Z,8.60
2023-04-18T18:15:03.316Z,6.93
2023-04-18T18:18:45.030Z,6.88
2023-04-18T18:22:26.897Z,7.97
2023-04-18T18:26:09.932Z,6.28
2023-04-18T18:29:52.723Z,8.25
2023-04-18T18:33:34.548Z,7.10
2023-04-18T18:37:16.301Z,8.70
2023-04-18T18:41:00.123Z,8.48
2023-04-18T18:44:43.529Z,6.78
2023-04-18T18:48:26.842Z,8.20
2023-04-18T18:52:08.598Z,7.00
2023-04-18T18:55:50.588Z,10.18
2023-04-18T18:59:32.390Z,11.18
2023-04-18T19:03:14.479Z,5.95
2023-04-18T19:06:56.345Z,9.30
2023-04-18T19:10:38.133Z,8.95
2023-04-18T19:14:19.891Z,10.00
2023-04-18T19:18:01.639Z,6.00
2023-04-18T19:21:45.957Z,6.13
2023-04-18T19:25:27.983Z,9.95
2023-04-18T19:29:10.715Z,12.23
2023-04-18T19:32:52.513Z,9.43
2023-04-18T19:36:34.280Z,7.78
2023-04-18T19:40:16.108Z,7.28
2023-04-18T19:43:57.841Z,9.30
2023-04-18T19:47:39.655Z,8.38
2023-04-18T19:51:21.546Z,11.52
2023-04-18T19:55:03.367Z,7.00
2023-04-18T19:58:46.033Z,6.88
2023-04-18T20:02:27.901Z,8.52
2023-04-18T20:06:09.883Z,9.60
2023-04-18T20:09:53.050Z,12.27
2023-04-18T20:13:36.655Z,13.23
2023-04-18T20:17:18.752Z,9.18
2023-04-18T20:21:00.580Z,14.60
2023-04-18T20:24:42.716Z,11.40
2023-04-18T20:28:24.542Z,11.48
2023-04-18T20:32:06.559Z,14.98
2023-04-18T20:35:48.297Z,13.13
2023-04-18T20:39:30.446Z,10.95
2023-04-18T20:43:13.541Z,13.05
2023-04-18T20:46:55.245Z,18.60
2023-04-18T20:50:37.107Z,12.25
2023-04-18T20:54:18.892Z,11.60
2023-04-18T20:58:00.701Z,13.00
2023-04-18T21:01:42.646Z,11.60
2023-04-18T21:05:24.482Z,8.93
2023-04-18T21:09:07.399Z,10.13
2023-04-18T21:12:49.200Z,9.27
2023-04-18T21:16:30.963Z,8.48
2023-04-18T21:20:12.850Z,13.95
2023-04-18T21:23:54.633Z,9.15
2023-04-18T21:27:39.249Z,7.93
2023-04-18T21:31:21.009Z,7.00
2023-04-18T21:35:02.848Z,9.35
2023-04-18T21:38:44.548Z,11.65
2023-04-18T21:42:26.912Z,10.50
2023-04-18T21:46:08.784Z,11.52
2023-04-18T21:49:50.714Z,13.13
2023-04-18T21:53:32.686Z,10.05
2023-04-18T21:57:14.436Z,7.35
2023-04-18T22:00:56.712Z,9.23
2023-04-18T22:04:42.529Z,8.63
2023-04-18T22:08:25.880Z,11.50
2023-04-18T22:12:08.329Z,9.45
2023-04-18T22:15:51.490Z,10.18
2023-04-18T22:19:33.347Z,9.23
2023-04-18T22:23:15.252Z,12.73
2023-04-18T22:26:57.065Z,11.10
2023-04-18T22:30:38.822Z,9.70
2023-04-18T22:34:20.750Z,11.75
2023-04-18T22:38:02.506Z,9.48
2023-04-18T22:41:44.273Z,10.93
2023-04-18T22:45:25.974Z,11.77
2023-04-18T22:49:07.717Z,13.10
2023-04-18T22:52:50.601Z,12.35
2023-04-18T22:56:32.337Z,11.57
2023-04-18T23:00:14.991Z,11.57
2023-04-18T23:03:56.942Z,11.10
2023-04-18T23:07:38.906Z,13.60
2023-04-18T23:11:21.196Z,14.88
2023-04-18T23:15:02.947Z,13.40
2023-04-18T23:18:44.686Z,13.77
2023-04-18T23:22:26.532Z,12.93
2023-04-18T23:26:15.303Z,12.32
2023-04-18T23:29:57.611Z,12.05
2023-04-18T23:33:39.361Z,13.82
2023-04-18T23:37:21.552Z,16.50
2023-04-18T23:41:03.511Z,13.35
2023-04-18T23:44:45.422Z,11.30
2023-04-18T23:48:27.185Z,14.82
2023-04-18T23:52:09.235Z,12.40
2023-04-18T23:55:51.264Z,11.80
2023-04-18T23:59:33.171Z,14.75
